Time;durP1;ratioP1;P1;durP2;ratioP2;P2;SDS_P1;SDS_P2;PMS_P1;PMS_P2;Temp;Humidity;BMP_temperature;BMP_pressure;BME280_temperature;BME280_humidity;BME280_pressure;Samples;Min_cycle;Max_cycle;Signal;HPM_P1;HPM_P2
2022/01/23 00:02:07;;;;;;;11.48;8.60;;;;;;;-0.33;74.78;99944.19;5127981;28;20441;-59
2022/01/23 00:04:34;;;;;;;10.63;7.53;;;;;;;-0.27;74.46;99956.34;5080836;28;20185;-59
2022/01/23 00:07:04;;;;;;;10.57;7.37;;;;;;;-0.32;75.51;99957.69;5127894;28;20189;-59
2022/01/23 00:09:31;;;;;;;8.53;7.17;;;;;;;-0.30;75.64;99961.22;5127966;28;20189;-59
2022/01/23 00:12:04;;;;;;;9.40;7.10;;;;;;;-0.30;75.06;99957.00;5127955;28;20198;-59
2022/01/23 00:17:20;;;;;;;8.60;7.07;;;;;;;-0.31;75.38;99967.91;5127876;28;20391;-60
2022/01/23 00:19:50;;;;;;;8.17;6.77;;;;;;;-0.31;76.10;99972.06;5128897;27;20209;-59
2022/01/23 00:22:18;;;;;;;9.10;6.60;;;;;;;-0.28;76.13;99973.16;5138369;27;20186;-59
2022/01/23 00:30:23;;;;;;;8.73;7.60;;;;;;;-0.23;74.65;99978.50;5123261;28;20324;-59
2022/01/23 00:32:52;;;;;;;8.40;7.40;;;;;;;-0.27;74.63;99982.47;5114004;28;20198;-59
2022/01/23 00:35:19;;;;;;;10.07;8.03;;;;;;;-0.28;74.38;99982.38;5127332;28;20284;-59
2022/01/23 00:37:46;;;;;;;9.37;7.47;;;;;;;-0.30;75.11;99984.78;5127144;28;20277;-58
2022/01/23 00:40:13;;;;;;;8.20;7.37;;;;;;;-0.33;75.21;99982.06;5127364;28;20204;-59
2022/01/23 00:42:42;;;;;;;9.40;7.17;;;;;;;-0.29;74.54;99993.25;5127733;28;20615;-58
2022/01/23 00:45:30;;;;;;;9.67;7.77;;;;;;;-0.31;74.34;99989.75;5127479;28;20221;-59
2022/01/23 00:48:01;;;;;;;9.90;7.13;;;;;;;-0.36;73.21;99993.63;5127283;28;20208;-58
2022/01/23 00:50:29;;;;;;;8.40;6.63;;;;;;;-0.36;71.80;100002.06;5118030;28;20190;-58
2022/01/23 00:52:57;;;;;;;10.50;6.83;;;;;;;-0.46;72.15;100006.38;5113774;28;20281;-58
2022/01/23 00:55:24;;;;;;;8.83;6.33;;;;;;;-0.43;70.24;99999.91;5113363;28;20190;-58
2022/01/23 00:57:52;;;;;;;8.80;7.30;;;;;;;-0.48;70.24;99996.19;5113578;28;20194;-58
2022/01/23 01:00:20;;;;;;;8.67;7.17;;;;;;;-0.46;68.79;99992.13;5113536;28;20197;-58
2022/01/23 01:02:47;;;;;;;7.43;6.53;;;;;;;-0.69;68.51;99946.81;5113796;28;20338;-58
2022/01/23 01:05:14;;;;;;;10.33;6.60;;;;;;;-0.47;67.51;100003.00;5109870;27;20190;-58
2022/01/23 01:07:41;;;;;;;8.57;6.40;;;;;;;-0.50;67.12;99994.34;5102081;28;20217;-59
2022/01/23 01:10:15;;;;;;;8.97;6.30;;;;;;;-0.45;66.85;100010.66;5101787;28;20210;-59
2022/01/23 01:12:44;;;;;;;8.23;6.80;;;;;;;-0.38;65.79;100013.69;5101262;28;20187;-58
2022/01/23 01:31:49;;;;;;;7.40;6.20;;;;;;;-0.51;65.05;100000.16;5092375;28;20182;-59
2022/01/23 01:34:20;;;;;;;7.33;6.50;;;;;;;-0.52;65.41;100006.00;5092269;28;20195;-58
2022/01/23 01:36:49;;;;;;;10.97;7.30;;;;;;;-0.51;65.68;100010.25;5092441;28;20187;-58
2022/01/23 01:39:23;;;;;;;10.77;6.90;;;;;;;-0.51;65.24;100010.25;5091925;28;20224;-58
2022/01/23 01:41:51;;;;;;;8.10;7.03;;;;;;;-0.58;64.92;100001.41;5092272;28;20580;-58
2022/01/23 01:44:19;;;;;;;10.00;6.77;;;;;;;-0.58;64.96;100008.97;5092101;28;20202;-58
2022/01/23 01:46:48;;;;;;;9.43;6.50;;;;;;;-0.61;65.17;100016.31;5091989;28;20186;-58
2022/01/23 01:49:15;;;;;;;9.63;6.73;;;;;;;-0.58;65.26;100026.63;5091859;28;20195;-58
2022/01/23 01:51:43;;;;;;;7.97;6.53;;;;;;;-0.55;64.57;100025.97;5092142;28;20580;-58
2022/01/23 01:54:13;;;;;;;8.50;6.40;;;;;;;-0.55;64.48;100025.97;5092890;27;20205;-58
2022/01/23 01:56:50;;;;;;;8.40;6.37;;;;;;;-0.60;64.93;100021.47;5092134;28;20194;-57
2022/01/23 01:59:34;;;;;;;7.73;6.17;;;;;;;-0.51;64.68;100031.31;5091841;28;20320;-59
2022/01/23 02:10:16;;;;;;;6.53;5.67;;;;;;;-0.34;62.49;100024.88;5091724;28;20722;-58
2022/01/23 02:22:22;;;;;;;7.63;6.20;;;;;;;-0.38;62.09;100013.69;5083579;28;20657;-59
2022/01/23 02:24:11;;;;;;;8.83;7.03;;;;;;;-0.46;62.47;99993.75;5091607;28;20247;-58
2022/01/23 02:51:35;;;;;;;8.23;6.50;;;;;;;-0.54;62.32;100022.66;5111492;28;20193;-55
2022/01/23 02:54:23;;;;;;;8.20;6.47;;;;;;;-0.49;61.68;100018.78;5111207;28;20222;-55
2022/01/23 02:56:53;;;;;;;8.23;6.20;;;;;;;-0.57;61.93;100028.38;5111233;28;20286;-55
2022/01/23 02:59:24;;;;;;;9.90;6.20;;;;;;;-0.63;62.03;100026.31;5111421;28;20197;-55
2022/01/23 03:02:08;;;;;;;8.30;5.83;;;;;;;-0.59;62.54;100024.88;5111394;28;20194;-55
2022/01/23 03:04:38;;;;;;;8.67;6.23;;;;;;;-0.54;61.40;100027.69;5111545;28;20988;-55
2022/01/23 03:07:31;;;;;;;9.70;6.33;;;;;;;-0.56;62.06;100026.72;5111172;28;20258;-55
2022/01/23 03:10:03;;;;;;;8.50;6.37;;;;;;;-0.54;61.98;100038.66;5110745;28;20210;-55
2022/01/23 03:15:32;;;;;;;8.83;6.47;;;;;;;-0.62;61.44;100007.88;5111206;28;20190;-55
2022/01/23 03:26:22;;;;;;;8.70;5.63;;;;;;;-0.55;59.65;99993.16;5110801;28;20241;-55
2022/01/23 03:31:41;;;;;;;6.63;5.00;;;;;;;-0.33;59.71;100040.09;5109786;28;20995;-55
2022/01/23 03:34:09;;;;;;;6.57;5.23;;;;;;;-0.38;60.38;100040.56;5110807;28;20225;-54
2022/01/23 03:36:37;;;;;;;8.33;5.33;;;;;;;-0.40;60.42;100040.47;5110483;28;20190;-55
2022/01/23 03:39:07;;;;;;;8.70;5.00;;;;;;;-0.36;60.47;100042.47;5110267;28;20268;-55
2022/01/23 03:41:36;;;;;;;6.53;5.83;;;;;;;-0.39;60.02;100041.38;5110908;28;20202;-54
2022/01/23 03:44:05;;;;;;;5.93;5.33;;;;;;;-0.38;60.14;100043.09;5110573;28;20186;-54
2022/01/23 03:46:47;;;;;;;8.10;5.77;;;;;;;-0.60;60.12;100010.50;5110489;28;20190;-54
2022/01/23 03:49:34;;;;;;;9.97;5.80;;;;;;;-0.47;60.71;100052.59;5110213;28;20293;-54
2022/01/23 03:52:03;;;;;;;9.57;5.40;;;;;;;-0.48;60.89;100043.25;5110755;28;20194;-55
2022/01/23 03:54:31;;;;;;;7.20;5.23;;;;;;;-0.43;60.29;100047.84;5110496;28;20197;-54
2022/01/23 03:57:01;;;;;;;6.83;5.57;;;;;;;-0.37;60.32;100049.91;5110334;28;20179;-54
2022/01/23 03:59:28;;;;;;;7.33;5.73;;;;;;;-0.33;59.62;100046.84;5110000;28;20933;-54
2022/01/23 04:01:55;;;;;;;7.27;5.53;;;;;;;-0.25;59.63;100046.53;5110787;28;20187;-55
2022/01/23 04:07:15;;;;;;;6.77;5.00;;;;;;;-0.29;58.70;100048.78;5089543;28;20273;-56
2022/01/23 04:09:43;;;;;;;7.10;5.37;;;;;;;-0.25;59.55;100055.78;5110370;28;20271;-56
2022/01/23 04:12:25;;;;;;;5.30;4.80;;;;;;;-0.27;58.30;100053.16;5110285;28;20226;-55
2022/01/23 04:14:58;;;;;;;6.60;4.93;;;;;;;-0.31;58.72;100055.38;5110245;28;20190;-55
2022/01/23 04:32:04;;;;;;;6.37;5.37;;;;;;;-0.20;59.54;100065.44;5055402;28;20218;-54
2022/01/23 04:34:38;;;;;;;5.97;5.17;;;;;;;-0.16;59.83;100066.50;5087739;28;20195;-55
2022/01/23 04:45:24;;;;;;;6.27;5.53;;;;;;;-0.13;60.20;100080.22;5087344;28;20200;-55
2022/01/23 05:01:50;;;;;;;6.53;5.03;;;;;;;-0.25;59.88;100094.50;5087116;28;20210;-54
2022/01/23 05:04:19;;;;;;;5.70;4.80;;;;;;;-0.30;60.35;100102.59;5087270;28;20306;-54
2022/01/23 05:06:57;;;;;;;10.13;5.97;;;;;;;-0.30;59.88;100110.16;5087120;28;20191;-55
2022/01/23 05:09:24;;;;;;;6.63;5.03;;;;;;;-0.25;60.52;100093.66;5087219;28;20191;-55
2022/01/23 05:11:57;;;;;;;7.27;5.87;;;;;;;-0.45;60.23;100086.38;5086947;28;20712;-55
2022/01/23 05:14:29;;;;;;;7.60;5.10;;;;;;;-0.29;60.32;100104.31;5086964;28;20538;-57
2022/01/23 05:16:56;;;;;;;7.67;5.67;;;;;;;-0.25;59.50;100114.72;5087158;28;20200;-55
2022/01/23 05:19:23;;;;;;;6.47;4.97;;;;;;;-0.24;59.84;100111.44;5086680;28;20286;-55
2022/01/23 05:22:16;;;;;;;7.60;5.60;;;;;;;-0.27;59.67;100123.84;5085465;28;20217;-55
2022/01/23 05:24:46;;;;;;;5.77;4.83;;;;;;;-0.30;60.61;100130.34;5084393;28;20589;-55
2022/01/23 05:27:14;;;;;;;6.97;5.00;;;;;;;-0.26;60.69;100142.38;5085907;28;20180;-54
2022/01/23 05:29:41;;;;;;;6.20;5.60;;;;;;;-0.32;60.49;100127.69;5085158;28;20248;-55
2022/01/23 05:32:12;;;;;;;7.13;5.40;;;;;;;-0.32;61.09;100124.28;5081782;28;20215;-55
2022/01/23 05:34:39;;;;;;;6.73;5.87;;;;;;;-0.21;60.87;100128.44;5070111;28;20270;-55
2022/01/23 05:37:06;;;;;;;6.97;5.60;;;;;;;-0.25;60.29;100126.50;5072154;28;20191;-55
2022/01/23 05:39:33;;;;;;;7.33;5.90;;;;;;;-0.25;61.06;100134.06;5072503;28;20230;-55
2022/01/23 05:42:06;;;;;;;18.63;5.13;;;;;;;-0.19;61.26;100132.81;5072201;28;20179;-55
2022/01/23 05:44:36;;;;;;;6.13;5.53;;;;;;;-0.15;59.97;100128.84;5072658;28;20180;-55
2022/01/23 05:47:04;;;;;;;6.70;5.30;;;;;;;-0.21;60.84;100129.31;5072867;28;20196;-55
2022/01/23 05:49:31;;;;;;;8.80;5.67;;;;;;;-0.16;60.54;100134.66;5072552;28;20298;-55
2022/01/23 05:51:58;;;;;;;7.53;6.00;;;;;;;-0.15;60.62;100124.69;5072389;28;20223;-54
2022/01/23 05:54:25;;;;;;;8.70;5.73;;;;;;;-0.09;60.60;100139.38;5072428;28;20191;-54
2022/01/23 05:56:52;;;;;;;5.67;5.17;;;;;;;-0.01;59.45;100129.03;5071715;28;20219;-55
2022/01/23 05:59:20;;;;;;;7.43;5.43;;;;;;;-0.07;60.33;100141.22;5072605;28;20202;-54
2022/01/23 06:01:51;;;;;;;9.20;5.87;;;;;;;0.02;59.65;100138.47;5072553;28;20210;-55
2022/01/23 06:04:18;;;;;;;7.07;5.33;;;;;;;0.04;58.76;100151.16;5072278;28;20704;-55
2022/01/23 06:06:46;;;;;;;6.63;5.77;;;;;;;0.10;58.71;100144.91;5072666;28;20574;-54
2022/01/23 06:09:13;;;;;;;7.90;5.80;;;;;;;0.12;58.75;100140.81;5072160;28;20192;-54
2022/01/23 06:11:40;;;;;;;6.10;5.50;;;;;;;0.21;59.17;100150.66;5072338;28;20634;-55
2022/01/23 06:14:09;;;;;;;6.70;5.10;;;;;;;0.27;58.56;100146.91;5071287;28;20278;-55
2022/01/23 06:16:36;;;;;;;6.10;5.23;;;;;;;0.33;59.13;100138.88;5067025;28;20275;-54
2022/01/23 06:19:04;;;;;;;7.50;5.73;;;;;;;0.27;58.47;100146.91;5071532;28;20192;-54
2022/01/23 06:21:31;;;;;;;7.20;5.50;;;;;;;0.30;58.79;100152.13;5071991;28;20353;-54
2022/01/23 06:24:04;;;;;;;7.78;6.10;;;;;;;0.37;59.12;100151.78;5069389;28;20449;-54
2022/01/23 06:26:45;;;;;;;8.50;5.63;;;;;;;0.39;57.99;100155.28;5072039;28;20214;-55
2022/01/23 06:29:13;;;;;;;6.80;5.67;;;;;;;0.50;57.95;100163.56;5071792;28;20286;-55
2022/01/23 06:31:41;;;;;;;5.90;5.13;;;;;;;0.51;58.54;100166.22;5071564;28;20215;-54
2022/01/23 06:34:10;;;;;;;7.73;6.00;;;;;;;0.39;58.09;100172.97;5071726;28;20196;-54
2022/01/23 06:36:38;;;;;;;9.67;6.10;;;;;;;0.29;58.60;100169.75;5066327;28;20183;-54
2022/01/23 06:39:08;;;;;;;11.23;7.20;;;;;;;0.31;58.76;100165.66;5071356;28;20208;-54
2022/01/23 06:41:36;;;;;;;9.00;6.10;;;;;;;0.45;57.66;100175.91;5071859;28;20207;-55
2022/01/23 06:44:04;;;;;;;9.35;6.60;;;;;;;0.53;58.20;100172.25;5069970;28;20437;-55
2022/01/23 06:46:31;;;;;;;8.93;6.30;;;;;;;0.56;57.43;100169.94;5070664;28;20206;-55
2022/01/23 06:48:58;;;;;;;6.87;6.27;;;;;;;0.58;57.18;100170.00;5071377;28;20195;-55
2022/01/23 06:51:26;;;;;;;7.63;5.87;;;;;;;0.57;56.54;100170.81;5071501;28;20627;-55
2022/01/23 06:53:53;;;;;;;6.90;5.20;;;;;;;0.47;56.65;100165.91;5071452;28;20597;-56
2022/01/23 06:56:20;;;;;;;8.10;5.80;;;;;;;0.41;57.25;100158.78;5071430;28;20585;-55
2022/01/23 06:58:47;;;;;;;8.13;5.90;;;;;;;0.36;57.22;100155.09;5070394;28;20628;-56
2022/01/23 07:01:15;;;;;;;8.27;6.67;;;;;;;0.43;57.67;100156.38;5071344;28;20202;-55
2022/01/23 07:03:42;;;;;;;9.70;5.87;;;;;;;0.41;57.06;100161.31;5071184;28;20203;-55
2022/01/23 07:06:10;;;;;;;8.00;6.57;;;;;;;0.44;57.61;100176.69;5066574;28;20191;-56
2022/01/23 07:08:38;;;;;;;7.90;5.93;;;;;;;0.37;58.09;100163.53;5068544;28;20200;-55
2022/01/23 07:11:05;;;;;;;10.37;7.00;;;;;;;0.41;57.04;100163.00;5070815;28;20209;-55
2022/01/23 07:13:32;;;;;;;9.57;6.93;;;;;;;0.42;57.34;100163.06;5070686;28;20215;-56
2022/01/23 07:16:02;;;;;;;8.23;7.10;;;;;;;0.33;56.34;100157.41;5071113;28;20192;-56
2022/01/23 07:18:29;;;;;;;7.17;6.40;;;;;;;0.36;56.59;100157.59;5069207;28;20229;-56
2022/01/23 07:20:56;;;;;;;8.00;6.80;;;;;;;0.41;57.33;100176.47;5063193;28;20278;-56
2022/01/23 07:23:23;;;;;;;7.88;6.82;;;;;;;0.42;56.52;100167.25;5061417;28;20517;-56
2022/01/23 07:25:52;;;;;;;9.17;6.77;;;;;;;0.37;56.47;100159.38;5054489;28;20648;-55
2022/01/23 07:28:22;;;;;;;8.80;7.10;;;;;;;0.46;57.09;100167.56;5071356;28;20278;-55
2022/01/23 07:30:51;;;;;;;11.07;7.83;;;;;;;0.50;55.49;100181.28;5060858;28;20191;-55
2022/01/23 07:33:18;;;;;;;8.13;6.50;;;;;;;0.49;56.29;100182.06;5066241;28;20212;-57
2022/01/23 07:35:46;;;;;;;7.73;6.03;;;;;;;0.54;55.52;100184.13;5054345;28;20192;-56
2022/01/23 07:38:16;;;;;;;10.70;6.53;;;;;;;0.62;54.68;100171.09;5068082;28;20290;-56
2022/01/23 07:40:44;;;;;;;11.50;7.35;;;;;;;0.83;55.02;100182.59;5070331;28;20434;-56
2022/01/23 07:43:13;;;;;;;10.50;8.15;;;;;;;1.06;53.33;100185.88;5069272;28;20437;-56
2022/01/23 07:45:40;;;;;;;9.50;7.17;;;;;;;1.06;53.02;100177.41;5070331;28;20204;-56
2022/01/23 07:48:07;;;;;;;12.10;7.10;;;;;;;1.26;56.30;100181.19;5061578;28;20618;-55
2022/01/23 07:50:35;;;;;;;10.10;6.80;;;;;;;1.58;56.34;100187.50;5049460;28;20197;-55
2022/01/23 07:53:02;;;;;;;9.17;6.73;;;;;;;1.71;54.69;100184.06;5051395;28;20594;-55
2022/01/23 07:55:29;;;;;;;13.03;6.80;;;;;;;1.89;52.72;100181.81;5052763;28;20226;-55
2022/01/23 07:58:02;;;;;;;9.17;6.97;;;;;;;1.82;53.10;100183.06;5053880;28;20275;-55
2022/01/23 08:00:31;;;;;;;8.57;6.30;;;;;;;1.85;51.75;100184.91;5050707;28;20199;-55
2022/01/23 08:02:58;;;;;;;10.83;6.50;;;;;;;1.88;50.96;100185.97;5048612;28;20284;-55
2022/01/23 08:05:25;;;;;;;10.00;6.97;;;;;;;2.05;51.51;100187.88;5048605;28;20227;-55
2022/01/23 08:07:51;;;;;;;11.23;6.37;;;;;;;1.96;49.09;100188.97;5051607;28;20284;-56
2022/01/23 08:10:19;;;;;;;6.90;5.90;;;;;;;1.94;49.17;100177.88;5048743;28;20196;-56
2022/01/23 08:12:45;;;;;;;9.60;7.47;;;;;;;1.83;50.12;100172.16;5048598;28;20586;-54
2022/01/23 08:15:13;;;;;;;8.47;7.07;;;;;;;1.79;50.10;100176.16;5051199;28;20617;-54
2022/01/23 08:17:41;;;;;;;8.13;7.00;;;;;;;1.64;50.70;100167.63;5051047;28;20200;-54
2022/01/23 08:20:09;;;;;;;11.70;7.20;;;;;;;1.72;51.11;100170.63;5048428;28;20207;-59
2022/01/23 08:22:36;;;;;;;14.57;7.83;;;;;;;1.77;51.23;100164.19;5048304;28;20580;-59
2022/01/23 08:25:05;;;;;;;13.00;7.50;;;;;;;1.88;51.28;100163.19;5050993;28;20342;-59
2022/01/23 08:27:33;;;;;;;10.80;7.63;;;;;;;1.74;50.95;100123.47;5054720;28;20199;-59
2022/01/23 08:30:00;;;;;;;8.50;7.40;;;;;;;1.87;49.77;100173.25;5061753;28;20667;-59
2022/01/23 08:32:27;;;;;;;12.97;7.67;;;;;;;1.83;50.58;100163.69;5068019;28;20204;-58
2022/01/23 08:34:55;;;;;;;11.87;7.60;;;;;;;1.73;50.46;100152.13;5068343;28;20184;-60
2022/01/23 08:37:22;;;;;;;12.27;8.00;;;;;;;1.84;50.32;100165.44;5060176;28;20726;-60
2022/01/23 08:39:49;;;;;;;10.73;7.30;;;;;;;1.95;50.13;100157.69;5049995;28;20624;-60
2022/01/23 08:42:18;;;;;;;11.00;7.13;;;;;;;2.02;49.47;100162.38;5068585;28;20641;-59
2022/01/23 08:44:47;;;;;;;10.07;7.73;;;;;;;2.13;49.28;100173.13;5065116;28;20206;-54
2022/01/23 08:47:14;;;;;;;11.17;7.63;;;;;;;2.14;49.27;100160.53;5068908;28;20193;-54
2022/01/23 08:49:46;;;;;;;18.27;7.90;;;;;;;2.26;49.44;100152.78;5058238;28;20185;-54
2022/01/23 08:52:17;;;;;;;12.13;7.37;;;;;;;2.26;48.67;100160.41;5066831;28;20230;-55
2022/01/23 08:54:48;;;;;;;9.67;6.57;;;;;;;2.15;47.79;100159.78;5063152;28;20681;-55
2022/01/23 08:57:16;;;;;;;7.87;6.27;;;;;;;1.97;48.33;100142.59;5049151;28;20196;-55
2022/01/23 08:59:43;;;;;;;10.93;6.33;;;;;;;2.20;48.54;100162.56;5059613;28;20201;-55
2022/01/23 09:02:11;;;;;;;8.60;6.07;;;;;;;2.09;46.94;100143.31;5068825;28;20242;-55
2022/01/23 09:04:38;;;;;;;7.80;5.83;;;;;;;2.13;46.91;100141.06;5069235;28;20187;-55
2022/01/23 09:07:05;;;;;;;7.37;6.03;;;;;;;2.28;46.40;100118.28;5063041;28;20212;-55
2022/01/23 09:09:37;;;;;;;10.23;5.60;;;;;;;2.17;46.27;100137.91;5069935;28;20194;-58
2022/01/23 09:12:08;;;;;;;11.83;5.70;;;;;;;2.17;46.26;100142.97;5072390;28;20199;-55
2022/01/23 09:14:35;;;;;;;9.87;6.60;;;;;;;2.20;45.86;100142.28;5072629;28;20246;-54
2022/01/23 09:17:04;;;;;;;11.37;6.40;;;;;;;2.19;46.71;100141.44;5069711;28;20276;-55
2022/01/23 09:19:32;;;;;;;9.63;7.10;;;;;;;2.35;46.10;100138.13;5067090;28;20437;-54
2022/01/23 09:22:01;;;;;;;19.70;5.73;;;;;;;2.32;45.81;100135.41;5061752;28;20880;-54
2022/01/23 09:24:30;;;;;;;7.10;6.17;;;;;;;2.40;45.52;100131.66;5052698;28;20534;-54
2022/01/23 09:27:04;;;;;;;6.70;5.37;;;;;;;2.47;46.37;100126.19;5065684;28;20199;-54
2022/01/23 09:29:35;;;;;;;8.27;5.90;;;;;;;2.54;45.97;100119.78;5060662;28;20187;-55
2022/01/23 09:32:04;;;;;;;8.70;6.03;;;;;;;2.53;45.89;100116.38;5072912;28;20195;-55
2022/01/23 09:34:32;;;;;;;8.03;5.33;;;;;;;2.28;45.32;100136.88;5072198;28;20217;-60
2022/01/23 09:37:02;;;;;;;8.80;6.13;;;;;;;2.28;45.38;100111.53;5072431;28;20279;-60
2022/01/23 09:39:31;;;;;;;7.67;5.50;;;;;;;2.20;45.69;100104.25;5072417;28;20222;-60
2022/01/23 09:42:05;;;;;;;7.87;5.33;;;;;;;2.29;45.21;100099.75;5072869;28;20282;-60
2022/01/23 09:44:40;;;;;;;11.60;6.23;;;;;;;2.05;45.01;100050.16;5067804;28;20564;-60
2022/01/23 09:47:07;;;;;;;8.37;6.10;;;;;;;2.29;45.40;100098.09;5065085;28;20626;-60
2022/01/23 09:49:35;;;;;;;11.67;6.43;;;;;;;2.48;44.90;100107.63;5070493;28;20279;-60
2022/01/23 09:52:05;;;;;;;10.20;7.07;;;;;;;2.46;44.24;100090.59;5066294;28;20195;-54
2022/01/23 09:54:33;;;;;;;7.87;5.17;;;;;;;2.46;43.55;100086.38;5067544;28;20251;-54
2022/01/23 09:57:04;;;;;;;7.10;5.30;;;;;;;2.52;43.83;100086.75;5051887;28;20187;-54
2022/01/23 09:59:32;;;;;;;6.40;5.53;;;;;;;2.48;43.35;100068.72;5051738;28;20219;-55
2022/01/23 10:02:01;;;;;;;12.63;6.63;;;;;;;2.65;43.88;100068.00;5070124;28;20741;-56
2022/01/23 10:04:28;;;;;;;6.80;5.33;;;;;;;2.79;42.40;100077.28;5058335;28;20677;-55
2022/01/23 10:06:55;;;;;;;8.57;6.20;;;;;;;2.60;42.76;100059.28;5053856;28;20188;-55
2022/01/23 10:09:24;;;;;;;11.93;5.60;;;;;;;2.73;42.77;100062.59;5052600;28;20302;-55
2022/01/23 10:11:51;;;;;;;8.17;6.10;;;;;;;2.91;42.18;100058.50;5069003;28;20735;-55
2022/01/23 10:14:21;;;;;;;8.47;5.60;;;;;;;2.83;42.14;100056.38;5055012;28;20761;-59
2022/01/23 10:16:48;;;;;;;8.23;5.50;;;;;;;2.77;42.46;100040.81;5054255;28;20327;-59
2022/01/23 10:19:16;;;;;;;10.27;5.60;;;;;;;2.79;42.22;100062.06;5053141;28;20188;-54
2022/01/23 10:21:45;;;;;;;6.03;5.40;;;;;;;3.09;41.55;100045.09;5050419;28;20228;-54
2022/01/23 10:24:13;;;;;;;7.00;5.80;;;;;;;2.96;40.61;100059.66;5050529;28;20181;-59
2022/01/23 10:26:47;;;;;;;9.10;6.13;;;;;;;2.95;41.24;100055.38;5056855;28;20200;-60
2022/01/23 10:29:17;;;;;;;9.17;6.17;;;;;;;3.01;40.70;100029.44;5053084;28;20279;-58
2022/01/23 10:32:11;;;;;;;9.50;5.70;;;;;;;3.18;40.54;100055.75;5053094;28;20192;-59
2022/01/23 10:34:57;;;;;;;5.97;4.70;;;;;;;3.08;41.12;100045.91;5060404;28;20600;-55
2022/01/23 10:37:31;;;;;;;6.97;5.63;;;;;;;3.13;41.16;100052.09;5054661;28;20196;-55
2022/01/23 10:39:59;;;;;;;11.10;6.20;;;;;;;3.42;41.24;100055.41;5050884;28;20279;-56
2022/01/23 10:48:36;;;;;;;9.10;6.30;;;;;;;3.04;39.95;100043.97;5050620;28;20233;-59
2022/01/23 10:51:19;;;;;;;8.00;5.43;;;;;;;2.93;40.18;100036.66;5049998;28;20257;-59
2022/01/23 10:54:09;;;;;;;6.67;5.97;;;;;;;2.93;40.87;100034.13;5049893;28;20226;-60
2022/01/23 10:56:40;;;;;;;9.03;6.43;;;;;;;2.91;41.43;100022.13;5050295;28;20208;-60
2022/01/23 10:59:10;;;;;;;11.03;6.63;;;;;;;3.12;41.60;100027.50;5050755;28;20241;-54
2022/01/23 11:01:38;;;;;;;17.87;9.53;;;;;;;3.23;41.58;100021.31;5050766;28;20189;-54
2022/01/23 11:04:11;;;;;;;9.77;6.63;;;;;;;3.01;41.27;100038.72;5050692;28;20196;-54
2022/01/23 11:06:53;;;;;;;10.13;8.00;;;;;;;3.07;41.77;100016.22;5058904;28;20253;-54
2022/01/23 11:09:20;;;;;;;12.20;7.33;;;;;;;3.10;41.50;100024.88;5068558;28;20394;-54
2022/01/23 11:11:49;;;;;;;9.43;6.90;;;;;;;3.19;40.96;100030.44;5070625;28;20203;-55
2022/01/23 11:17:23;;;;;;;11.45;8.75;;;;;;;3.10;41.40;100016.38;5059814;28;20601;-55
2022/01/23 11:19:53;;;;;;;9.30;6.97;;;;;;;3.10;40.86;100009.66;5064165;28;20223;-55
2022/01/23 11:22:22;;;;;;;9.43;7.20;;;;;;;3.08;41.00;100021.34;5057662;28;20717;-55
2022/01/23 11:24:50;;;;;;;10.73;7.60;;;;;;;2.97;41.32;100010.63;5062159;28;20190;-54
2022/01/23 11:27:19;;;;;;;12.40;8.33;;;;;;;3.15;41.95;100013.31;5052051;28;20185;-54
2022/01/23 11:29:54;;;;;;;9.60;6.67;;;;;;;3.17;41.26;100003.22;5063158;28;20191;-54
2022/01/23 11:32:22;;;;;;;8.80;6.70;;;;;;;3.08;41.31;100011.22;5061436;28;20260;-55
2022/01/23 11:34:57;;;;;;;9.70;6.87;;;;;;;2.94;41.64;100002.84;5052416;28;20251;-54
2022/01/23 11:37:24;;;;;;;10.20;6.40;;;;;;;2.91;41.62;99997.59;5050521;28;20204;-54
2022/01/23 11:39:57;;;;;;;8.97;7.57;;;;;;;2.85;42.22;100015.06;5061645;28;20191;-54
2022/01/23 11:51:05;;;;;;;11.57;7.43;;;;;;;2.80;41.89;100008.00;5034971;28;20188;-60
2022/01/23 11:53:50;;;;;;;8.27;6.20;;;;;;;2.81;41.89;100008.06;5069360;28;20220;-59
2022/01/23 11:56:48;;;;;;;10.03;6.53;;;;;;;2.91;41.97;100010.28;5069932;28;20206;-60
2022/01/23 11:59:27;;;;;;;7.37;6.53;;;;;;;2.68;43.05;100013.25;5056007;28;20655;-60
2022/01/23 12:02:29;;;;;;;9.83;6.97;;;;;;;2.65;42.76;100017.28;5050301;28;20191;-60
2022/01/23 12:05:23;;;;;;;9.80;6.73;;;;;;;2.52;43.13;100013.19;5050237;28;20192;-60
2022/01/23 12:08:16;;;;;;;10.23;6.90;;;;;;;2.44;43.60;100008.47;5050177;28;20196;-60
2022/01/23 12:17:19;;;;;;;14.48;7.95;;;;;;;2.47;44.16;100027.28;5049122;28;20484;-60
2022/01/23 12:19:52;;;;;;;9.90;7.47;;;;;;;2.50;43.93;100021.50;5049568;28;20195;-60
2022/01/23 12:22:33;;;;;;;10.37;7.33;;;;;;;2.39;44.24;100020.88;5048983;28;20233;-60
2022/01/23 12:25:20;;;;;;;11.87;7.37;;;;;;;2.37;44.46;100012.31;5049313;28;20191;-61
2022/01/23 12:27:48;;;;;;;11.87;8.27;;;;;;;2.33;44.35;100016.34;5053634;28;20218;-60
2022/01/23 12:30:33;;;;;;;12.33;7.93;;;;;;;2.40;44.21;100015.03;5060937;28;20219;-60
2022/01/23 12:33:44;;;;;;;14.97;9.63;;;;;;;2.44;44.68;100000.88;5056880;28;20211;-60
2022/01/23 12:36:23;;;;;;;15.97;9.40;;;;;;;2.42;45.15;100007.53;5058240;28;20270;-55
2022/01/23 12:38:54;;;;;;;12.73;7.73;;;;;;;2.46;44.83;100019.56;5054676;28;20735;-55
2022/01/23 12:41:30;;;;;;;11.13;8.40;;;;;;;2.47;45.41;100003.59;5047566;28;20196;-55
2022/01/23 12:44:00;;;;;;;11.97;7.20;;;;;;;2.59;44.68;100000.06;5056624;28;20245;-54
2022/01/23 12:46:33;;;;;;;11.10;8.03;;;;;;;2.61;44.25;100008.63;5055789;28;20275;-55
2022/01/23 12:49:17;;;;;;;12.37;8.43;;;;;;;2.64;44.13;100011.31;5017215;28;21028;-55
2022/01/23 12:51:45;;;;;;;12.03;7.87;;;;;;;2.71;44.00;100008.34;5053291;28;20199;-55
2022/01/23 12:54:34;;;;;;;11.87;7.63;;;;;;;2.60;43.91;99996.75;5052325;28;20239;-54
2022/01/23 12:57:12;;;;;;;11.97;7.27;;;;;;;2.70;44.00;100003.19;5054276;28;20200;-55
2022/01/23 12:59:42;;;;;;;11.83;8.37;;;;;;;2.53;44.53;100006.47;5052429;28;20200;-55
2022/01/23 13:02:18;;;;;;;15.00;8.60;;;;;;;2.55;45.20;100004.88;5056205;28;20276;-55
2022/01/23 13:04:47;;;;;;;14.47;9.77;;;;;;;2.75;44.80;100000.09;5058761;28;20191;-55
2022/01/23 13:07:32;;;;;;;10.97;8.17;;;;;;;2.72;44.72;100007.53;5050424;28;20207;-55
2022/01/23 13:10:31;;;;;;;13.17;8.73;;;;;;;2.57;45.45;99995.69;5052180;28;20279;-56
2022/01/23 13:13:17;;;;;;;13.47;7.60;;;;;;;2.79;45.18;100009.66;5055388;28;20202;-60
2022/01/23 13:16:16;;;;;;;14.43;7.37;;;;;;;2.76;44.57;100011.13;5024838;28;20195;-55
2022/01/23 13:18:51;;;;;;;13.03;7.63;;;;;;;2.60;44.94;100006.88;5061896;28;20199;-55
2022/01/23 13:27:38;;;;;;;14.77;9.03;;;;;;;2.65;46.40;100020.69;5068536;28;20198;-55
2022/01/23 13:30:15;;;;;;;11.37;8.57;;;;;;;2.62;46.52;100039.94;5065978;28;20203;-56
2022/01/23 13:32:45;;;;;;;9.57;7.10;;;;;;;2.48;45.16;100026.47;5061724;28;20196;-55
2022/01/23 13:35:16;;;;;;;11.17;8.33;;;;;;;2.41;46.11;100029.47;5064363;28;20474;-55
2022/01/23 13:37:55;;;;;;;9.73;7.37;;;;;;;2.55;45.94;100033.66;5059301;28;20188;-56
2022/01/23 13:40:28;;;;;;;11.67;7.40;;;;;;;2.61;45.38;100036.50;5063259;28;20250;-55
2022/01/23 13:59:50;;;;;;;16.47;9.27;;;;;;;2.50;45.80;100034.19;5037704;28;20245;-59
2022/01/23 14:02:24;;;;;;;12.43;8.43;;;;;;;2.59;45.64;100042.28;5036664;28;20223;-60
2022/01/23 14:04:57;;;;;;;10.53;6.97;;;;;;;2.50;45.97;100036.72;5015014;28;20257;-60
2022/01/23 14:07:28;;;;;;;12.87;8.00;;;;;;;2.45;45.95;100038.09;5039135;28;20199;-60
2022/01/23 14:09:59;;;;;;;9.47;7.13;;;;;;;2.49;46.14;100046.00;5039433;28;20694;-60
2022/01/23 14:12:33;;;;;;;10.93;7.90;;;;;;;2.43;46.14;100040.56;5034682;28;20216;-58
2022/01/23 14:15:05;;;;;;;9.40;7.50;;;;;;;2.46;46.30;100044.94;5038135;28;20223;-59
2022/01/23 14:17:39;;;;;;;9.63;7.07;;;;;;;2.51;46.24;100044.41;5036407;28;20197;-60
2022/01/23 14:20:09;;;;;;;11.43;9.10;;;;;;;2.64;46.39;100039.22;5034575;28;20431;-60
2022/01/23 14:22:39;;;;;;;8.87;7.30;;;;;;;2.61;46.15;100044.13;5037071;28;20774;-59
2022/01/23 14:25:12;;;;;;;10.30;7.87;;;;;;;2.58;45.79;100038.91;5036754;28;20218;-59
2022/01/23 14:27:40;;;;;;;14.47;7.90;;;;;;;2.58;45.78;100043.09;5058013;28;20191;-59
2022/01/23 14:30:09;;;;;;;11.83;8.73;;;;;;;2.57;46.01;100024.47;5067316;28;20250;-59
2022/01/23 14:32:44;;;;;;;9.17;6.97;;;;;;;2.52;45.74;100014.84;5066593;28;20697;-60
2022/01/23 14:35:15;;;;;;;11.93;7.80;;;;;;;2.51;45.59;100026.66;5065236;28;20218;-60
2022/01/23 14:37:43;;;;;;;9.27;6.87;;;;;;;2.50;46.12;100031.66;5067210;28;20195;-60